sensor_id;sensor_type;location;lat;lon;timestamp;temperature;humidity
64855;DHT22;51321;50.428;8.378;2023-11-18T00:02:45;3.80;99.90
64855;DHT22;51321;50.428;8.378;2023-11-18T00:05:25;3.80;99.90
64855;DHT22;51321;50.428;8.378;2023-11-18T00:08:09;3.80;99.90
64855;DHT22;51321;50.428;8.378;2023-11-18T00:10:49;3.80;99.90
64855;DHT22;51321;50.428;8.378;2023-11-18T00:13:30;3.90;99.90
64855;DHT22;51321;50.428;8.378;2023-11-18T00:16:12;3.90;99.90
64855;DHT22;51321;50.428;8.378;2023-11-18T00:18:54;3.90;99.90
64855;DHT22;51321;50.428;8.378;2023-11-18T00:21:34;3.90;99.90
64855;DHT22;51321;50.428;8.378;2023-11-18T00:24:24;3.80;99.90
64855;DHT22;51321;50.428;8.378;2023-11-18T00:27:04;3.70;99.90
64855;DHT22;51321;50.428;8.378;2023-11-18T00:29:45;3.80;99.90
64855;DHT22;51321;50.428;8.378;2023-11-18T00:32:26;3.80;99.90
64855;DHT22;51321;50.428;8.378;2023-11-18T00:35:06;3.90;99.90
64855;DHT22;51321;50.428;8.378;2023-11-18T00:37:49;3.90;99.90
64855;DHT22;51321;50.428;8.378;2023-11-18T00:40:31;4.00;99.90
64855;DHT22;51321;50.428;8.378;2023-11-18T00:43:12;4.00;99.90
64855;DHT22;51321;50.428;8.378;2023-11-18T00:45:57;4.00;99.90
64855;DHT22;51321;50.428;8.378;2023-11-18T00:48:40;4.00;99.90
64855;DHT22;51321;50.428;8.378;2023-11-18T00:51:21;3.90;99.90
64855;DHT22;51321;50.428;8.378;2023-11-18T00:54:01;3.80;99.90
64855;DHT22;51321;50.428;8.378;2023-11-18T00:56:46;3.80;99.90
64855;DHT22;51321;50.428;8.378;2023-11-18T00:59:26;3.80;99.90
64855;DHT22;51321;50.428;8.378;2023-11-18T01:02:08;3.80;99.90
64855;DHT22;51321;50.428;8.378;2023-11-18T01:04:48;3.80;99.90
64855;DHT22;51321;50.428;8.378;2023-11-18T01:07:29;3.80;99.90
64855;DHT22;51321;50.428;8.378;2023-11-18T01:10:09;3.80;99.90
64855;DHT22;51321;50.428;8.378;2023-11-18T01:12:52;3.90;99.90
64855;DHT22;51321;50.428;8.378;2023-11-18T01:15:34;4.00;99.90
64855;DHT22;51321;50.428;8.378;2023-11-18T01:18:14;4.00;99.90
64855;DHT22;51321;50.428;8.378;2023-11-18T01:20:55;4.00;99.90
64855;DHT22;51321;50.428;8.378;2023-11-18T01:23:37;3.80;99.90
64855;DHT22;51321;50.428;8.378;2023-11-18T01:26:17;3.70;99.90
64855;DHT22;51321;50.428;8.378;2023-11-18T01:29:00;3.70;99.90
64855;DHT22;51321;50.428;8.378;2023-11-18T01:31:42;3.70;99.90
64855;DHT22;51321;50.428;8.378;2023-11-18T01:34:23;3.60;99.90
64855;DHT22;51321;50.428;8.378;2023-11-18T01:37:04;3.60;99.90
64855;DHT22;51321;50.428;8.378;2023-11-18T01:39:47;3.60;99.90
64855;DHT22;51321;50.428;8.378;2023-11-18T01:42:27;3.70;99.90
64855;DHT22;51321;50.428;8.378;2023-11-18T01:45:12;3.60;99.90
64855;DHT22;51321;50.428;8.378;2023-11-18T01:47:53;3.50;99.90
64855;DHT22;51321;50.428;8.378;2023-11-18T01:50:33;3.40;99.90
64855;DHT22;51321;50.428;8.378;2023-11-18T01:53:14;3.30;99.90
64855;DHT22;51321;50.428;8.378;2023-11-18T01:55:55;3.30;99.90
64855;DHT22;51321;50.428;8.378;2023-11-18T01:58:38;3.20;99.90
64855;DHT22;51321;50.428;8.378;2023-11-18T02:01:21;3.20;99.90
64855;DHT22;51321;50.428;8.378;2023-11-18T02:04:01;3.20;99.90
64855;DHT22;51321;50.428;8.378;2023-11-18T02:06:45;3.10;99.90
64855;DHT22;51321;50.428;8.378;2023-11-18T02:09:27;3.20;99.90
64855;DHT22;51321;50.428;8.378;2023-11-18T02:12:16;3.20;99.90
64855;DHT22;51321;50.428;8.378;2023-11-18T02:14:59;3.20;99.90
64855;DHT22;51321;50.428;8.378;2023-11-18T02:17:41;3.30;99.90
64855;DHT22;51321;50.428;8.378;2023-11-18T02:20:23;3.40;99.90
64855;DHT22;51321;50.428;8.378;2023-11-18T02:23:05;3.40;99.90
64855;DHT22;51321;50.428;8.378;2023-11-18T02:25:49;3.60;99.90
64855;DHT22;51321;50.428;8.378;2023-11-18T02:28:29;3.60;99.90
64855;DHT22;51321;50.428;8.378;2023-11-18T02:31:11;3.80;99.90
64855;DHT22;51321;50.428;8.378;2023-11-18T02:33:54;3.80;99.90
64855;DHT22;51321;50.428;8.378;2023-11-18T02:36:39;3.70;99.90
64855;DHT22;51321;50.428;8.378;2023-11-18T02:39:21;3.70;99.90
64855;DHT22;51321;50.428;8.378;2023-11-18T02:42:06;3.70;99.90
64855;DHT22;51321;50.428;8.378;2023-11-18T02:44:49;3.80;99.90
64855;DHT22;51321;50.428;8.378;2023-11-18T02:47:38;3.70;99.90
64855;DHT22;51321;50.428;8.378;2023-11-18T02:50:20;3.80;99.90
64855;DHT22;51321;50.428;8.378;2023-11-18T02:53:01;3.80;99.90
64855;DHT22;51321;50.428;8.378;2023-11-18T02:55:47;3.80;99.90
64855;DHT22;51321;50.428;8.378;2023-11-18T02:58:32;3.80;99.90
64855;DHT22;51321;50.428;8.378;2023-11-18T03:01:14;3.80;99.90
64855;DHT22;51321;50.428;8.378;2023-11-18T03:03:55;3.90;99.90
64855;DHT22;51321;50.428;8.378;2023-11-18T03:06:40;4.00;99.90
64855;DHT22;51321;50.428;8.378;2023-11-18T03:09:23;3.90;99.90
64855;DHT22;51321;50.428;8.378;2023-11-18T03:12:06;3.80;99.90
64855;DHT22;51321;50.428;8.378;2023-11-18T03:14:49;3.70;99.90
64855;DHT22;51321;50.428;8.378;2023-11-18T03:17:30;3.60;99.90
64855;DHT22;51321;50.428;8.378;2023-11-18T03:20:13;3.40;99.90
64855;DHT22;51321;50.428;8.378;2023-11-18T03:22:58;3.50;99.90
64855;DHT22;51321;50.428;8.378;2023-11-18T03:25:40;3.50;99.90
64855;DHT22;51321;50.428;8.378;2023-11-18T03:28:20;3.60;99.90
64855;DHT22;51321;50.428;8.378;2023-11-18T03:31:04;3.70;99.90
64855;DHT22;51321;50.428;8.378;2023-11-18T03:33:45;3.80;99.90
64855;DHT22;51321;50.428;8.378;2023-11-18T03:36:25;3.90;99.90
64855;DHT22;51321;50.428;8.378;2023-11-18T03:39:06;3.80;99.90
64855;DHT22;51321;50.428;8.378;2023-11-18T03:41:46;3.90;99.90
64855;DHT22;51321;50.428;8.378;2023-11-18T03:44:28;3.80;99.90
64855;DHT22;51321;50.428;8.378;2023-11-18T03:47:11;3.80;99.90
64855;DHT22;51321;50.428;8.378;2023-11-18T03:49:52;3.90;99.90
64855;DHT22;51321;50.428;8.378;2023-11-18T03:52:34;3.90;99.90
64855;DHT22;51321;50.428;8.378;2023-11-18T03:55:16;3.80;99.90
64855;DHT22;51321;50.428;8.378;2023-11-18T03:57:59;3.70;99.90
64855;DHT22;51321;50.428;8.378;2023-11-18T04:00:40;3.70;99.90
64855;DHT22;51321;50.428;8.378;2023-11-18T04:03:22;3.60;99.90
64855;DHT22;51321;50.428;8.378;2023-11-18T04:06:03;3.60;99.90
64855;DHT22;51321;50.428;8.378;2023-11-18T04:08:44;3.70;99.90
64855;DHT22;51321;50.428;8.378;2023-11-18T04:11:24;3.60;99.90
64855;DHT22;51321;50.428;8.378;2023-11-18T04:14:05;3.50;99.90
64855;DHT22;51321;50.428;8.378;2023-11-18T04:16:46;3.50;99.90
64855;DHT22;51321;50.428;8.378;2023-11-18T04:19:29;3.50;99.90
64855;DHT22;51321;50.428;8.378;2023-11-18T04:22:09;3.50;99.90
64855;DHT22;51321;50.428;8.378;2023-11-18T04:24:51;3.50;99.90
64855;DHT22;51321;50.428;8.378;2023-11-18T04:27:31;3.70;99.90
64855;DHT22;51321;50.428;8.378;2023-11-18T04:30:12;3.70;99.90
64855;DHT22;51321;50.428;8.378;2023-11-18T04:32:52;3.70;99.90
64855;DHT22;51321;50.428;8.378;2023-11-18T04:35:34;3.60;99.90
64855;DHT22;51321;50.428;8.378;2023-11-18T04:38:15;3.60;99.90
64855;DHT22;51321;50.428;8.378;2023-11-18T04:40:55;3.40;99.90
64855;DHT22;51321;50.428;8.378;2023-11-18T04:43:36;3.30;99.90
64855;DHT22;51321;50.428;8.378;2023-11-18T04:46:20;3.40;99.90
64855;DHT22;51321;50.428;8.378;2023-11-18T04:49:01;3.50;99.90
64855;DHT22;51321;50.428;8.378;2023-11-18T04:51:43;3.60;99.90
64855;DHT22;51321;50.428;8.378;2023-11-18T04:54:24;3.50;99.90
64855;DHT22;51321;50.428;8.378;2023-11-18T04:57:04;3.50;99.90
64855;DHT22;51321;50.428;8.378;2023-11-18T04:59:48;3.40;99.90
64855;DHT22;51321;50.428;8.378;2023-11-18T05:02:28;3.40;99.90
64855;DHT22;51321;50.428;8.378;2023-11-18T05:05:09;3.50;99.90
64855;DHT22;51321;50.428;8.378;2023-11-18T05:07:52;3.50;99.90
64855;DHT22;51321;50.428;8.378;2023-11-18T05:10:34;3.50;99.90
64855;DHT22;51321;50.428;8.378;2023-11-18T05:13:15;3.40;99.90
64855;DHT22;51321;50.428;8.378;2023-11-18T05:15:56;3.40;99.90
64855;DHT22;51321;50.428;8.378;2023-11-18T05:18:36;3.50;99.90
64855;DHT22;51321;50.428;8.378;2023-11-18T05:21:17;3.40;99.90
64855;DHT22;51321;50.428;8.378;2023-11-18T05:24:01;3.40;99.90
64855;DHT22;51321;50.428;8.378;2023-11-18T05:26:41;3.40;99.90
64855;DHT22;51321;50.428;8.378;2023-11-18T05:29:22;3.40;99.90
64855;DHT22;51321;50.428;8.378;2023-11-18T05:32:03;3.40;99.90
64855;DHT22;51321;50.428;8.378;2023-11-18T05:34:44;3.40;99.90
64855;DHT22;51321;50.428;8.378;2023-11-18T05:37:25;3.50;99.90
64855;DHT22;51321;50.428;8.378;2023-11-18T05:40:09;3.50;99.90
64855;DHT22;51321;50.428;8.378;2023-11-18T05:42:54;3.50;99.90
64855;DHT22;51321;50.428;8.378;2023-11-18T05:45:34;3.50;99.90
64855;DHT22;51321;50.428;8.378;2023-11-18T05:48:34;3.40;99.90
64855;DHT22;51321;50.428;8.378;2023-11-18T05:51:18;3.40;99.90
64855;DHT22;51321;50.428;8.378;2023-11-18T05:53:59;3.40;99.90
64855;DHT22;51321;50.428;8.378;2023-11-18T05:56:41;3.30;99.90
64855;DHT22;51321;50.428;8.378;2023-11-18T05:59:21;3.30;99.90
64855;DHT22;51321;50.428;8.378;2023-11-18T06:02:02;3.20;99.90
64855;DHT22;51321;50.428;8.378;2023-11-18T06:04:43;3.30;99.90
64855;DHT22;51321;50.428;8.378;2023-11-18T06:07:27;3.40;99.90
64855;DHT22;51321;50.428;8.378;2023-11-18T06:10:09;3.40;99.90
64855;DHT22;51321;50.428;8.378;2023-11-18T06:12:53;3.40;99.90
64855;DHT22;51321;50.428;8.378;2023-11-18T06:15:34;3.50;99.90
64855;DHT22;51321;50.428;8.378;2023-11-18T06:18:19;3.40;99.90
64855;DHT22;51321;50.428;8.378;2023-11-18T06:20:59;3.30;99.90
64855;DHT22;51321;50.428;8.378;2023-11-18T06:23:40;3.30;99.90
64855;DHT22;51321;50.428;8.378;2023-11-18T06:26:20;3.20;99.90
64855;DHT22;51321;50.428;8.378;2023-11-18T06:29:02;3.20;99.90
64855;DHT22;51321;50.428;8.378;2023-11-18T06:31:43;3.20;99.90
64855;DHT22;51321;50.428;8.378;2023-11-18T06:34:24;3.10;99.90
64855;DHT22;51321;50.428;8.378;2023-11-18T06:37:05;3.20;99.90
64855;DHT22;51321;50.428;8.378;2023-11-18T06:39:46;3.20;99.90
64855;DHT22;51321;50.428;8.378;2023-11-18T06:42:27;3.30;99.90
64855;DHT22;51321;50.428;8.378;2023-11-18T06:45:11;3.20;99.90
64855;DHT22;51321;50.428;8.378;2023-11-18T06:47:52;3.20;99.90
64855;DHT22;51321;50.428;8.378;2023-11-18T06:50:33;3.20;99.90
64855;DHT22;51321;50.428;8.378;2023-11-18T06:53:14;3.40;99.90
64855;DHT22;51321;50.428;8.378;2023-11-18T06:55:55;3.40;99.90
64855;DHT22;51321;50.428;8.378;2023-11-18T06:58:36;3.40;99.90
64855;DHT22;51321;50.428;8.378;2023-11-18T07:01:18;3.30;99.90
64855;DHT22;51321;50.428;8.378;2023-11-18T07:03:59;3.30;99.90
64855;DHT22;51321;50.428;8.378;2023-11-18T07:06:39;3.20;99.90
64855;DHT22;51321;50.428;8.378;2023-11-18T07:09:20;3.20;99.90
64855;DHT22;51321;50.428;8.378;2023-11-18T07:12:01;3.30;99.90
64855;DHT22;51321;50.428;8.378;2023-11-18T07:14:42;3.10;99.90
64855;DHT22;51321;50.428;8.378;2023-11-18T07:17:26;3.10;99.90
64855;DHT22;51321;50.428;8.378;2023-11-18T07:20:07;3.20;99.90
64855;DHT22;51321;50.428;8.378;2023-11-18T07:22:50;3.20;99.90
64855;DHT22;51321;50.428;8.378;2023-11-18T07:25:31;3.20;99.90
64855;DHT22;51321;50.428;8.378;2023-11-18T07:28:13;3.30;99.90
64855;DHT22;51321;50.428;8.378;2023-11-18T07:30:56;3.30;99.90
64855;DHT22;51321;50.428;8.378;2023-11-18T07:33:38;3.30;99.90
64855;DHT22;51321;50.428;8.378;2023-11-18T07:36:19;3.50;99.90
64855;DHT22;51321;50.428;8.378;2023-11-18T07:38:59;3.60;99.90
64855;DHT22;51321;50.428;8.378;2023-11-18T07:41:41;3.60;99.90
64855;DHT22;51321;50.428;8.378;2023-11-18T07:44:22;3.50;99.90
64855;DHT22;51321;50.428;8.378;2023-11-18T07:47:02;3.50;99.90
64855;DHT22;51321;50.428;8.378;2023-11-18T07:49:45;3.60;99.90
64855;DHT22;51321;50.428;8.378;2023-11-18T07:52:27;3.70;99.90
64855;DHT22;51321;50.428;8.378;2023-11-18T07:55:08;3.90;99.90
64855;DHT22;51321;50.428;8.378;2023-11-18T07:57:53;3.90;99.90
64855;DHT22;51321;50.428;8.378;2023-11-18T08:00:33;3.90;99.90
64855;DHT22;51321;50.428;8.378;2023-11-18T08:03:15;3.80;99.90
64855;DHT22;51321;50.428;8.378;2023-11-18T08:05:57;3.80;99.90
64855;DHT22;51321;50.428;8.378;2023-11-18T08:08:38;3.90;99.90
64855;DHT22;51321;50.428;8.378;2023-11-18T08:11:18;4.00;99.90
64855;DHT22;51321;50.428;8.378;2023-11-18T08:13:59;4.00;99.90
64855;DHT22;51321;50.428;8.378;2023-11-18T08:16:41;4.00;99.90
64855;DHT22;51321;50.428;8.378;2023-11-18T08:19:24;4.00;99.90
64855;DHT22;51321;50.428;8.378;2023-11-18T08:22:18;4.10;99.90
64855;DHT22;51321;50.428;8.378;2023-11-18T08:25:02;4.20;99.90
64855;DHT22;51321;50.428;8.378;2023-11-18T08:27:47;4.40;99.90
64855;DHT22;51321;50.428;8.378;2023-11-18T08:30:27;4.40;99.90
64855;DHT22;51321;50.428;8.378;2023-11-18T08:33:08;4.50;99.90
64855;DHT22;51321;50.428;8.378;2023-11-18T08:35:48;4.60;99.90
64855;DHT22;51321;50.428;8.378;2023-11-18T08:38:31;4.70;99.90
64855;DHT22;51321;50.428;8.378;2023-11-18T08:41:11;4.60;99.90
64855;DHT22;51321;50.428;8.378;2023-11-18T08:43:53;4.60;99.90
64855;DHT22;51321;50.428;8.378;2023-11-18T08:46:34;4.50;99.90
64855;DHT22;51321;50.428;8.378;2023-11-18T08:49:14;4.50;99.90
64855;DHT22;51321;50.428;8.378;2023-11-18T08:52:00;4.80;99.90
64855;DHT22;51321;50.428;8.378;2023-11-18T08:54:42;4.70;99.90
64855;DHT22;51321;50.428;8.378;2023-11-18T08:57:44;4.90;99.90
64855;DHT22;51321;50.428;8.378;2023-11-18T09:00:31;4.90;99.90
64855;DHT22;51321;50.428;8.378;2023-11-18T09:03:29;5.00;99.90
64855;DHT22;51321;50.428;8.378;2023-11-18T09:06:13;5.00;99.90
64855;DHT22;51321;50.428;8.378;2023-11-18T09:08:57;5.00;99.90
64855;DHT22;51321;50.428;8.378;2023-11-18T09:11:41;4.90;99.90
64855;DHT22;51321;50.428;8.378;2023-11-18T09:14:23;5.10;99.90
64855;DHT22;51321;50.428;8.378;2023-11-18T09:17:04;5.00;99.90
64855;DHT22;51321;50.428;8.378;2023-11-18T09:19:46;5.00;99.90
64855;DHT22;51321;50.428;8.378;2023-11-18T09:22:26;5.10;99.90
64855;DHT22;51321;50.428;8.378;2023-11-18T09:25:07;5.10;99.90
64855;DHT22;51321;50.428;8.378;2023-11-18T09:27:49;5.10;99.90
64855;DHT22;51321;50.428;8.378;2023-11-18T09:30:30;5.10;99.90
64855;DHT22;51321;50.428;8.378;2023-11-18T09:33:12;5.10;99.90
64855;DHT22;51321;50.428;8.378;2023-11-18T09:36:01;5.20;99.90
64855;DHT22;51321;50.428;8.378;2023-11-18T09:38:42;5.30;99.90
64855;DHT22;51321;50.428;8.378;2023-11-18T09:41:22;5.50;99.90
64855;DHT22;51321;50.428;8.378;2023-11-18T09:44:06;5.60;99.90
64855;DHT22;51321;50.428;8.378;2023-11-18T09:46:46;5.60;99.90
64855;DHT22;51321;50.428;8.378;2023-11-18T09:49:39;5.60;99.90
64855;DHT22;51321;50.428;8.378;2023-11-18T09:52:20;5.60;99.90
64855;DHT22;51321;50.428;8.378;2023-11-18T09:55:04;5.70;99.90
64855;DHT22;51321;50.428;8.378;2023-11-18T09:57:55;5.70;99.90
64855;DHT22;51321;50.428;8.378;2023-11-18T10:00:41;5.70;99.90
64855;DHT22;51321;50.428;8.378;2023-11-18T10:03:21;5.80;99.90
64855;DHT22;51321;50.428;8.378;2023-11-18T10:06:02;5.80;99.90
64855;DHT22;51321;50.428;8.378;2023-11-18T10:08:44;5.80;99.90
64855;DHT22;51321;50.428;8.378;2023-11-18T10:11:25;5.80;99.90
64855;DHT22;51321;50.428;8.378;2023-11-18T10:14:08;5.80;99.90
64855;DHT22;51321;50.428;8.378;2023-11-18T10:16:51;5.80;99.90
64855;DHT22;51321;50.428;8.378;2023-11-18T10:19:52;5.80;99.90
64855;DHT22;51321;50.428;8.378;2023-11-18T10:22:36;5.80;99.90
64855;DHT22;51321;50.428;8.378;2023-11-18T10:25:22;5.80;99.90
64855;DHT22;51321;50.428;8.378;2023-11-18T10:28:04;5.90;99.90
64855;DHT22;51321;50.428;8.378;2023-11-18T10:30:45;5.90;99.90
64855;DHT22;51321;50.428;8.378;2023-11-18T10:33:29;5.90;99.90
64855;DHT22;51321;50.428;8.378;2023-11-18T10:36:17;5.80;99.90
64855;DHT22;51321;50.428;8.378;2023-11-18T10:39:03;5.80;99.90
64855;DHT22;51321;50.428;8.378;2023-11-18T10:41:52;5.90;99.90
64855;DHT22;51321;50.428;8.378;2023-11-18T10:44:40;5.80;99.90
64855;DHT22;51321;50.428;8.378;2023-11-18T10:47:34;5.80;99.90
64855;DHT22;51321;50.428;8.378;2023-11-18T10:50:19;5.80;99.90
64855;DHT22;51321;50.428;8.378;2023-11-18T10:53:02;5.80;99.90
64855;DHT22;51321;50.428;8.378;2023-11-18T10:55:50;5.80;99.90
64855;DHT22;51321;50.428;8.378;2023-11-18T10:58:37;5.80;99.90
64855;DHT22;51321;50.428;8.378;2023-11-18T11:01:29;5.90;99.90
64855;DHT22;51321;50.428;8.378;2023-11-18T11:04:11;5.90;99.90
64855;DHT22;51321;50.428;8.378;2023-11-18T11:06:57;5.90;99.90
64855;DHT22;51321;50.428;8.378;2023-11-18T11:09:40;6.10;99.90
64855;DHT22;51321;50.428;8.378;2023-11-18T11:12:26;6.10;99.90
64855;DHT22;51321;50.428;8.378;2023-11-18T11:15:12;6.10;99.90
64855;DHT22;51321;50.428;8.378;2023-11-18T11:18:03;6.00;99.90
64855;DHT22;51321;50.428;8.378;2023-11-18T11:20:53;6.10;99.90
64855;DHT22;51321;50.428;8.378;2023-11-18T11:23:46;6.00;99.90
64855;DHT22;51321;50.428;8.378;2023-11-18T11:26:39;6.10;99.90
64855;DHT22;51321;50.428;8.378;2023-11-18T11:29:32;6.10;99.90
64855;DHT22;51321;50.428;8.378;2023-11-18T11:32:16;6.10;99.90
64855;DHT22;51321;50.428;8.378;2023-11-18T11:35:00;6.20;99.90
64855;DHT22;51321;50.428;8.378;2023-11-18T11:37:47;6.10;99.90
64855;DHT22;51321;50.428;8.378;2023-11-18T11:40:30;6.10;99.90
64855;DHT22;51321;50.428;8.378;2023-11-18T11:43:11;6.10;99.90
64855;DHT22;51321;50.428;8.378;2023-11-18T11:45:54;6.00;99.90
64855;DHT22;51321;50.428;8.378;2023-11-18T11:48:35;6.10;99.90
64855;DHT22;51321;50.428;8.378;2023-11-18T11:51:19;6.20;99.90
64855;DHT22;51321;50.428;8.378;2023-11-18T11:54:06;6.30;99.90
64855;DHT22;51321;50.428;8.378;2023-11-18T11:56:56;6.30;99.90
64855;DHT22;51321;50.428;8.378;2023-11-18T11:59:55;6.30;99.90
64855;DHT22;51321;50.428;8.378;2023-11-18T12:02:36;6.50;99.90
64855;DHT22;51321;50.428;8.378;2023-11-18T12:05:19;6.40;99.90
64855;DHT22;51321;50.428;8.378;2023-11-18T12:08:07;6.40;99.90
64855;DHT22;51321;50.428;8.378;2023-11-18T12:10:53;6.40;99.90
64855;DHT22;51321;50.428;8.378;2023-11-18T12:13:36;6.50;99.90
64855;DHT22;51321;50.428;8.378;2023-11-18T12:16:18;6.50;99.90
64855;DHT22;51321;50.428;8.378;2023-11-18T12:21:56;6.70;99.90
64855;DHT22;51321;50.428;8.378;2023-11-18T12:24:39;6.60;99.90
64855;DHT22;51321;50.428;8.378;2023-11-18T12:30:39;6.90;99.90
64855;DHT22;51321;50.428;8.378;2023-11-18T12:42:39;6.70;99.90
64855;DHT22;51321;50.428;8.378;2023-11-18T12:48:24;6.80;99.90
64855;DHT22;51321;50.428;8.378;2023-11-18T12:51:07;6.80;99.90
64855;DHT22;51321;50.428;8.378;2023-11-18T12:53:52;6.70;99.90
64855;DHT22;51321;50.428;8.378;2023-11-18T12:56:33;6.70;99.90
64855;DHT22;51321;50.428;8.378;2023-11-18T12:59:14;6.70;99.90
64855;DHT22;51321;50.428;8.378;2023-11-18T13:01:56;6.80;99.90
64855;DHT22;51321;50.428;8.378;2023-11-18T13:04:38;7.00;99.90
64855;DHT22;51321;50.428;8.378;2023-11-18T13:07:19;7.00;99.90
64855;DHT22;51321;50.428;8.378;2023-11-18T13:10:00;7.10;99.90
64855;DHT22;51321;50.428;8.378;2023-11-18T13:12:43;7.10;99.90
64855;DHT22;51321;50.428;8.378;2023-11-18T13:15:26;7.20;99.90
64855;DHT22;51321;50.428;8.378;2023-11-18T13:18:09;7.20;99.90
64855;DHT22;51321;50.428;8.378;2023-11-18T13:20:56;7.20;99.90
64855;DHT22;51321;50.428;8.378;2023-11-18T13:23:37;7.20;99.90
64855;DHT22;51321;50.428;8.378;2023-11-18T13:26:17;7.20;99.90
64855;DHT22;51321;50.428;8.378;2023-11-18T13:28:59;7.20;99.90
64855;DHT22;51321;50.428;8.378;2023-11-18T13:31:41;7.10;99.90
64855;DHT22;51321;50.428;8.378;2023-11-18T13:34:22;7.20;99.90
64855;DHT22;51321;50.428;8.378;2023-11-18T13:37:04;7.20;99.90
64855;DHT22;51321;50.428;8.378;2023-11-18T13:39:47;7.20;99.90
64855;DHT22;51321;50.428;8.378;2023-11-18T13:42:34;7.30;99.90
64855;DHT22;51321;50.428;8.378;2023-11-18T13:45:16;7.30;99.90
64855;DHT22;51321;50.428;8.378;2023-11-18T13:48:00;7.30;99.90
64855;DHT22;51321;50.428;8.378;2023-11-18T13:50:41;7.30;99.90
64855;DHT22;51321;50.428;8.378;2023-11-18T13:53:23;7.20;99.90
64855;DHT22;51321;50.428;8.378;2023-11-18T13:56:04;7.20;99.90
64855;DHT22;51321;50.428;8.378;2023-11-18T13:58:46;7.20;99.90
64855;DHT22;51321;50.428;8.378;2023-11-18T14:01:26;7.20;99.90
64855;DHT22;51321;50.428;8.378;2023-11-18T14:04:09;7.20;99.90
64855;DHT22;51321;50.428;8.378;2023-11-18T14:06:50;7.20;99.90
64855;DHT22;51321;50.428;8.378;2023-11-18T14:09:33;7.20;99.90
64855;DHT22;51321;50.428;8.378;2023-11-18T14:12:15;7.20;99.90
64855;DHT22;51321;50.428;8.378;2023-11-18T14:14:56;7.20;99.90
64855;DHT22;51321;50.428;8.378;2023-11-18T14:17:37;7.10;99.90
64855;DHT22;51321;50.428;8.378;2023-11-18T14:20:19;7.10;99.90
64855;DHT22;51321;50.428;8.378;2023-11-18T14:23:01;7.10;99.90
64855;DHT22;51321;50.428;8.378;2023-11-18T14:25:44;7.10;99.90
64855;DHT22;51321;50.428;8.378;2023-11-18T14:28:25;7.10;99.90
64855;DHT22;51321;50.428;8.378;2023-11-18T14:31:08;7.10;99.90
64855;DHT22;51321;50.428;8.378;2023-11-18T14:33:50;7.10;99.90
64855;DHT22;51321;50.428;8.378;2023-11-18T14:36:31;7.20;99.90
64855;DHT22;51321;50.428;8.378;2023-11-18T14:39:11;7.20;99.90
64855;DHT22;51321;50.428;8.378;2023-11-18T14:41:55;7.10;99.90
64855;DHT22;51321;50.428;8.378;2023-11-18T14:44:36;7.20;99.90
64855;DHT22;51321;50.428;8.378;2023-11-18T14:47:18;7.20;99.90
64855;DHT22;51321;50.428;8.378;2023-11-18T14:49:59;7.10;99.90
64855;DHT22;51321;50.428;8.378;2023-11-18T14:52:41;7.10;99.90
64855;DHT22;51321;50.428;8.378;2023-11-18T14:55:22;7.10;99.90
64855;DHT22;51321;50.428;8.378;2023-11-18T14:58:06;7.10;99.90
64855;DHT22;51321;50.428;8.378;2023-11-18T15:00:47;7.10;99.90
64855;DHT22;51321;50.428;8.378;2023-11-18T15:03:27;7.00;99.90
64855;DHT22;51321;50.428;8.378;2023-11-18T15:06:08;7.00;99.90
64855;DHT22;51321;50.428;8.378;2023-11-18T15:08:51;7.00;99.90
64855;DHT22;51321;50.428;8.378;2023-11-18T15:11:33;7.00;99.90
64855;DHT22;51321;50.428;8.378;2023-11-18T15:14:16;7.00;99.90
64855;DHT22;51321;50.428;8.378;2023-11-18T15:16:56;7.10;99.90
64855;DHT22;51321;50.428;8.378;2023-11-18T15:19:37;7.10;99.90
64855;DHT22;51321;50.428;8.378;2023-11-18T15:22:18;7.10;99.90
64855;DHT22;51321;50.428;8.378;2023-11-18T15:24:58;7.00;99.90
64855;DHT22;51321;50.428;8.378;2023-11-18T15:27:40;7.00;99.90
64855;DHT22;51321;50.428;8.378;2023-11-18T15:30:22;7.00;99.90
64855;DHT22;51321;50.428;8.378;2023-11-18T15:33:04;7.00;99.90
64855;DHT22;51321;50.428;8.378;2023-11-18T15:35:47;7.00;99.90
64855;DHT22;51321;50.428;8.378;2023-11-18T15:38:28;7.00;99.90
64855;DHT22;51321;50.428;8.378;2023-11-18T15:41:09;7.00;99.90
64855;DHT22;51321;50.428;8.378;2023-11-18T15:43:50;7.00;99.90
64855;DHT22;51321;50.428;8.378;2023-11-18T15:46:35;7.00;99.90
64855;DHT22;51321;50.428;8.378;2023-11-18T15:49:16;7.00;99.90
64855;DHT22;51321;50.428;8.378;2023-11-18T15:51:57;6.90;99.90
64855;DHT22;51321;50.428;8.378;2023-11-18T15:54:38;6.90;99.90
64855;DHT22;51321;50.428;8.378;2023-11-18T15:57:22;7.00;99.90
64855;DHT22;51321;50.428;8.378;2023-11-18T16:00:03;7.00;99.90
64855;DHT22;51321;50.428;8.378;2023-11-18T16:02:47;7.00;99.90
64855;DHT22;51321;50.428;8.378;2023-11-18T16:05:27;7.00;99.90
64855;DHT22;51321;50.428;8.378;2023-11-18T16:08:12;7.00;99.90
64855;DHT22;51321;50.428;8.378;2023-11-18T16:10:52;7.00;99.90
64855;DHT22;51321;50.428;8.378;2023-11-18T16:13:33;7.00;99.90
64855;DHT22;51321;50.428;8.378;2023-11-18T16:16:14;7.00;99.90
64855;DHT22;51321;50.428;8.378;2023-11-18T16:18:56;7.10;99.90
64855;DHT22;51321;50.428;8.378;2023-11-18T16:21:38;7.10;99.90
64855;DHT22;51321;50.428;8.378;2023-11-18T16:24:20;7.10;99.90
64855;DHT22;51321;50.428;8.378;2023-11-18T16:27:00;7.10;99.90
64855;DHT22;51321;50.428;8.378;2023-11-18T16:29:41;7.10;99.90
64855;DHT22;51321;50.428;8.378;2023-11-18T16:32:23;7.20;99.90
64855;DHT22;51321;50.428;8.378;2023-11-18T16:35:06;7.10;99.90
64855;DHT22;51321;50.428;8.378;2023-11-18T16:37:50;7.10;99.90
64855;DHT22;51321;50.428;8.378;2023-11-18T16:40:32;7.00;99.90
64855;DHT22;51321;50.428;8.378;2023-11-18T16:43:13;7.00;99.90
64855;DHT22;51321;50.428;8.378;2023-11-18T16:45:54;7.10;99.90
64855;DHT22;51321;50.428;8.378;2023-11-18T16:48:35;7.10;99.90
64855;DHT22;51321;50.428;8.378;2023-11-18T16:51:17;7.00;99.90
64855;DHT22;51321;50.428;8.378;2023-11-18T16:53:57;7.00;99.90
64855;DHT22;51321;50.428;8.378;2023-11-18T16:56:38;7.10;99.90
64855;DHT22;51321;50.428;8.378;2023-11-18T16:59:18;7.00;99.90
64855;DHT22;51321;50.428;8.378;2023-11-18T17:01:59;7.00;99.90
64855;DHT22;51321;50.428;8.378;2023-11-18T17:04:41;7.10;99.90
64855;DHT22;51321;50.428;8.378;2023-11-18T17:07:22;7.10;99.90
64855;DHT22;51321;50.428;8.378;2023-11-18T17:10:03;7.20;99.90
64855;DHT22;51321;50.428;8.378;2023-11-18T17:12:49;7.20;99.90
64855;DHT22;51321;50.428;8.378;2023-11-18T17:15:30;7.20;99.90
64855;DHT22;51321;50.428;8.378;2023-11-18T17:18:10;7.20;99.90
64855;DHT22;51321;50.428;8.378;2023-11-18T17:20:51;7.20;99.90
64855;DHT22;51321;50.428;8.378;2023-11-18T17:23:35;7.30;99.90
64855;DHT22;51321;50.428;8.378;2023-11-18T17:26:19;7.30;99.90
64855;DHT22;51321;50.428;8.378;2023-11-18T17:28:59;7.30;99.90
64855;DHT22;51321;50.428;8.378;2023-11-18T17:31:40;7.30;99.90
64855;DHT22;51321;50.428;8.378;2023-11-18T17:34:22;7.20;99.90
64855;DHT22;51321;50.428;8.378;2023-11-18T17:37:03;7.20;99.90
64855;DHT22;51321;50.428;8.378;2023-11-18T17:39:46;7.20;99.90
64855;DHT22;51321;50.428;8.378;2023-11-18T17:42:26;7.20;99.90